createdAt,value
2023-05-19T00:00:18.051Z,11.70
2023-05-19T00:01:18.066Z,14.20
2023-05-19T00:02:18.051Z,14.10
2023-05-19T00:03:18.167Z,13.30
2023-05-19T00:04:18.003Z,12.00
2023-05-19T00:05:18.027Z,14.00
2023-05-19T00:06:18.117Z,13.50
2023-05-19T00:07:17.993Z,12.20
2023-05-19T00:08:17.970Z,12.00
2023-05-19T00:09:17.966Z,13.10
2023-05-19T00:10:17.950Z,12.70
2023-05-19T00:11:17.966Z,12.50
2023-05-19T00:12:17.913Z,13.40
2023-05-19T00:13:17.943Z,13.50
2023-05-19T00:14:17.897Z,15.50
2023-05-19T00:15:17.955Z,12.30
2023-05-19T00:16:17.936Z,14.90
2023-05-19T00:17:17.896Z,14.30
2023-05-19T00:18:17.851Z,14.30
2023-05-19T00:19:17.959Z,13.90
2023-05-19T00:20:17.826Z,13.50
2023-05-19T00:21:17.861Z,13.80
2023-05-19T00:22:17.892Z,15.70
2023-05-19T00:23:17.842Z,15.60
2023-05-19T00:24:17.811Z,12.10
2023-05-19T00:25:17.820Z,13.50
2023-05-19T00:26:17.795Z,13.00
2023-05-19T00:27:17.802Z,12.70
2023-05-19T00:28:17.749Z,13.90
2023-05-19T00:29:17.775Z,12.00
2023-05-19T00:30:17.735Z,13.10
2023-05-19T00:31:17.915Z,14.90
2023-05-19T00:32:17.816Z,14.40
2023-05-19T00:33:17.711Z,12.60
2023-05-19T00:34:17.684Z,13.40
2023-05-19T00:35:17.719Z,12.40
2023-05-19T00:36:17.663Z,15.40
2023-05-19T00:37:17.677Z,13.00
2023-05-19T00:38:17.657Z,13.20
2023-05-19T00:39:17.692Z,12.70
2023-05-19T00:40:17.631Z,14.00
2023-05-19T00:41:17.673Z,12.80
2023-05-19T00:42:17.608Z,11.10
2023-05-19T00:43:17.633Z,13.20
2023-05-19T00:44:17.574Z,12.90
2023-05-19T00:45:17.596Z,14.50
2023-05-19T00:46:17.624Z,13.10
2023-05-19T00:47:17.594Z,13.70
2023-05-19T00:48:17.546Z,12.60
2023-05-19T00:49:17.568Z,13.80
2023-05-19T00:50:17.527Z,12.40
2023-05-19T00:51:17.528Z,13.20
2023-05-19T00:52:17.511Z,13.90
2023-05-19T00:53:17.525Z,12.80
2023-05-19T00:54:17.494Z,14.80
2023-05-19T00:55:17.496Z,13.30
2023-05-19T00:56:17.514Z,13.40
2023-05-19T00:57:17.736Z,13.10
2023-05-19T00:58:17.517Z,15.20
2023-05-19T00:59:17.454Z,13.60
2023-05-19T01:00:17.415Z,14.60
2023-05-19T01:01:17.604Z,13.10
2023-05-19T01:02:17.405Z,12.20
2023-05-19T01:03:17.564Z,13.50
2023-05-19T01:04:17.369Z,12.10
2023-05-19T01:05:17.366Z,14.10
2023-05-19T01:06:17.378Z,11.60
2023-05-19T01:07:17.343Z,13.20
2023-05-19T01:08:17.378Z,12.30
2023-05-19T01:09:17.350Z,12.10
2023-05-19T01:10:17.345Z,13.60
2023-05-19T01:11:17.317Z,14.70
2023-05-19T01:12:17.326Z,14.80
2023-05-19T01:13:17.279Z,11.60
2023-05-19T01:14:17.365Z,14.00
2023-05-19T01:15:17.253Z,13.00
2023-05-19T01:16:17.309Z,14.60
2023-05-19T01:17:17.264Z,13.30
2023-05-19T01:18:17.253Z,13.40
2023-05-19T01:19:17.252Z,13.90
2023-05-19T01:20:17.254Z,14.30
2023-05-19T01:21:17.207Z,16.20
2023-05-19T01:22:17.218Z,12.70
2023-05-19T01:23:17.173Z,12.60
2023-05-19T01:24:17.197Z,14.50
2023-05-19T01:25:17.172Z,16.50
2023-05-19T01:26:17.187Z,12.80
2023-05-19T01:27:17.130Z,14.90
2023-05-19T01:28:17.146Z,14.60
2023-05-19T01:29:17.111Z,16.60
2023-05-19T01:30:17.152Z,14.70
2023-05-19T01:31:17.102Z,16.60
2023-05-19T01:32:17.106Z,12.50
2023-05-19T01:33:17.072Z,15.40
2023-05-19T01:34:17.094Z,14.50
2023-05-19T01:35:17.081Z,14.10
2023-05-19T01:36:17.069Z,14.00
2023-05-19T01:37:17.047Z,14.70
2023-05-19T01:38:17.046Z,13.00
2023-05-19T01:39:17.018Z,13.70
2023-05-19T01:40:17.033Z,14.20
2023-05-19T01:41:17.025Z,16.90
2023-05-19T01:42:17.013Z,13.40
2023-05-19T01:43:16.973Z,14.40
2023-05-19T01:44:16.988Z,11.30
2023-05-19T01:45:16.956Z,13.00
2023-05-19T01:46:17.072Z,12.10
2023-05-19T01:47:16.961Z,15.00
2023-05-19T01:48:16.950Z,13.90
2023-05-19T01:49:16.923Z,14.10
2023-05-19T01:50:16.930Z,14.80
2023-05-19T01:51:16.890Z,13.90
2023-05-19T01:52:16.919Z,14.20
2023-05-19T01:53:16.905Z,14.70
2023-05-19T01:54:16.877Z,14.90
2023-05-19T01:55:16.854Z,15.60
2023-05-19T01:56:16.858Z,14.80
2023-05-19T01:57:16.831Z,15.10
2023-05-19T01:58:16.840Z,14.70
2023-05-19T01:59:16.849Z,15.30
2023-05-19T02:00:17.201Z,14.00
2023-05-19T02:01:16.805Z,14.30
2023-05-19T02:02:16.796Z,15.80
2023-05-19T02:03:16.785Z,12.60
2023-05-19T02:04:16.804Z,13.90
2023-05-19T02:05:16.761Z,16.30
2023-05-19T02:06:16.761Z,12.90
2023-05-19T02:07:16.719Z,13.80
2023-05-19T02:08:16.743Z,14.40
2023-05-19T02:09:16.717Z,15.30
2023-05-19T02:10:16.718Z,17.70
2023-05-19T02:11:16.696Z,14.10
2023-05-19T02:12:16.697Z,14.10
2023-05-19T02:13:16.669Z,13.90
2023-05-19T02:14:16.680Z,14.10
2023-05-19T02:15:16.651Z,14.00
2023-05-19T02:16:16.735Z,15.70
2023-05-19T02:17:16.639Z,14.60
2023-05-19T02:18:16.639Z,13.10
2023-05-19T02:19:16.634Z,14.00
2023-05-19T02:20:16.615Z,13.50
2023-05-19T02:21:16.576Z,14.30
2023-05-19T02:22:16.610Z,12.60
2023-05-19T02:23:16.566Z,16.10
2023-05-19T02:24:16.571Z,14.70
2023-05-19T02:25:16.553Z,15.10
2023-05-19T02:26:16.544Z,14.60
2023-05-19T02:27:16.517Z,13.30
2023-05-19T02:28:16.537Z,12.60
2023-05-19T02:29:16.535Z,12.90
2023-05-19T02:30:16.503Z,14.60
2023-05-19T02:31:16.469Z,14.80
2023-05-19T02:32:16.611Z,15.00
2023-05-19T02:33:16.455Z,14.10
2023-05-19T02:34:16.462Z,14.90
2023-05-19T02:35:16.443Z,16.20
2023-05-19T02:36:16.438Z,13.70
2023-05-19T02:37:16.434Z,14.40
2023-05-19T02:38:16.414Z,13.50
2023-05-19T02:39:16.404Z,14.00
2023-05-19T02:40:16.405Z,13.80
2023-05-19T02:41:16.382Z,13.80
2023-05-19T02:42:16.387Z,14.60
2023-05-19T02:43:16.344Z,14.70
2023-05-19T02:44:16.354Z,13.30
2023-05-19T02:45:16.319Z,13.40
2023-05-19T02:46:16.372Z,15.10
2023-05-19T02:47:16.343Z,15.60
2023-05-19T02:48:16.354Z,14.80
2023-05-19T02:49:16.288Z,14.10
2023-05-19T02:50:16.297Z,14.00
2023-05-19T02:51:16.260Z,14.10
2023-05-19T02:52:16.309Z,13.50
2023-05-19T02:53:16.277Z,12.80
2023-05-19T02:54:16.274Z,12.80
2023-05-19T02:55:16.218Z,14.00
2023-05-19T02:56:16.250Z,13.10
2023-05-19T02:57:16.217Z,13.20
2023-05-19T02:58:16.214Z,13.80
2023-05-19T02:59:16.194Z,14.00
2023-05-19T03:00:16.220Z,15.50
2023-05-19T03:01:16.219Z,13.10
2023-05-19T03:02:16.235Z,14.90
2023-05-19T03:03:16.281Z,15.30
2023-05-19T03:04:16.145Z,14.60
2023-05-19T03:05:16.140Z,14.30
2023-05-19T03:06:16.150Z,15.30
2023-05-19T03:07:16.109Z,12.70
2023-05-19T03:08:16.115Z,14.40
2023-05-19T03:09:16.079Z,15.30
2023-05-19T03:10:16.097Z,13.60
2023-05-19T03:11:16.065Z,14.90
2023-05-19T03:12:16.071Z,14.30
2023-05-19T03:13:16.034Z,13.40
2023-05-19T03:14:16.042Z,14.90
2023-05-19T03:15:16.034Z,14.60
2023-05-19T03:16:16.057Z,14.50
2023-05-19T03:17:16.073Z,13.80
2023-05-19T03:18:16.044Z,13.30
2023-05-19T03:19:16.000Z,13.80
2023-05-19T03:20:16.002Z,14.60
2023-05-19T03:21:15.959Z,13.60
2023-05-19T03:22:16.020Z,13.00
2023-05-19T03:23:15.955Z,15.60
2023-05-19T03:24:15.946Z,15.00
2023-05-19T03:25:15.933Z,15.00
2023-05-19T03:26:15.924Z,14.50
2023-05-19T03:27:15.890Z,11.40
2023-05-19T03:28:15.922Z,14.90
2023-05-19T03:29:15.905Z,13.20
2023-05-19T03:30:15.977Z,13.70
2023-05-19T03:31:15.852Z,14.70
2023-05-19T03:32:15.893Z,14.10
2023-05-19T03:33:16.040Z,14.70
2023-05-19T03:34:15.842Z,15.40
2023-05-19T03:35:15.852Z,14.70
2023-05-19T03:36:15.820Z,15.80
2023-05-19T03:37:15.799Z,14.80
2023-05-19T03:38:15.805Z,15.30
2023-05-19T03:39:15.765Z,15.70
2023-05-19T03:40:15.945Z,15.60
2023-05-19T03:41:16.284Z,13.70
2023-05-19T03:42:15.777Z,13.90
2023-05-19T03:43:15.745Z,14.20
2023-05-19T03:44:15.760Z,12.30
2023-05-19T03:45:15.710Z,15.10
2023-05-19T03:46:15.726Z,11.90
2023-05-19T03:47:15.712Z,12.70
2023-05-19T03:48:15.696Z,13.40
2023-05-19T03:49:15.672Z,12.20
2023-05-19T03:50:15.731Z,13.40
2023-05-19T03:51:15.643Z,11.90
2023-05-19T03:52:15.673Z,12.40
2023-05-19T03:53:15.666Z,11.80
2023-05-19T03:54:15.672Z,12.40
2023-05-19T03:55:15.608Z,13.90
2023-05-19T03:56:15.632Z,14.30
2023-05-19T03:57:15.605Z,13.80
2023-05-19T03:58:15.592Z,13.80
2023-05-19T03:59:15.638Z,14.00
2023-05-19T04:00:15.558Z,15.30
2023-05-19T04:01:15.580Z,15.20
2023-05-19T04:02:16.622Z,15.30
2023-05-19T04:03:15.577Z,15.10
2023-05-19T04:04:15.568Z,12.90
2023-05-19T04:05:15.562Z,14.80
2023-05-19T04:06:15.500Z,14.40
2023-05-19T04:07:15.497Z,14.20
2023-05-19T04:08:15.463Z,15.40
2023-05-19T04:09:15.478Z,14.50
2023-05-19T04:10:15.453Z,14.20
2023-05-19T04:11:15.474Z,14.70
2023-05-19T04:12:15.444Z,13.50
2023-05-19T04:13:15.438Z,13.30
2023-05-19T04:14:15.414Z,13.10
2023-05-19T04:15:15.441Z,15.20
2023-05-19T04:16:15.419Z,13.20
2023-05-19T04:17:15.419Z,13.40
2023-05-19T04:18:15.418Z,14.00
2023-05-19T04:19:15.422Z,13.20
2023-05-19T04:20:15.366Z,12.60
2023-05-19T04:21:15.364Z,12.80
2023-05-19T04:22:15.343Z,13.10
2023-05-19T04:23:15.385Z,13.80
2023-05-19T04:24:15.304Z,14.90
2023-05-19T04:25:15.320Z,13.80
2023-05-19T04:26:15.289Z,14.60
2023-05-19T04:27:15.305Z,13.50
2023-05-19T04:28:15.275Z,13.60
2023-05-19T04:29:15.293Z,15.70
2023-05-19T04:30:16.714Z,14.60
2023-05-19T04:31:15.361Z,14.10
2023-05-19T04:32:15.244Z,15.10
2023-05-19T04:33:15.234Z,13.80
2023-05-19T04:34:15.192Z,16.70
2023-05-19T04:35:15.246Z,14.40
2023-05-19T04:36:15.243Z,15.10
2023-05-19T04:37:15.195Z,16.60
2023-05-19T04:38:15.160Z,13.90
2023-05-19T04:39:15.179Z,15.80
2023-05-19T04:40:15.144Z,14.90
2023-05-19T04:41:15.246Z,15.00
2023-05-19T04:42:15.111Z,14.20
2023-05-19T04:43:15.133Z,16.20
2023-05-19T04:44:15.103Z,18.70
2023-05-19T04:45:15.117Z,14.10
2023-05-19T04:46:15.150Z,15.70
2023-05-19T04:47:15.110Z,14.00
2023-05-19T04:48:15.061Z,16.60
2023-05-19T04:49:15.079Z,15.20
2023-05-19T04:50:15.043Z,13.20
2023-05-19T04:51:15.055Z,13.40
2023-05-19T04:52:15.008Z,16.60
2023-05-19T04:53:15.053Z,16.00
2023-05-19T04:54:15.016Z,16.00
2023-05-19T04:55:15.028Z,13.80
2023-05-19T04:56:14.997Z,15.60
2023-05-19T04:57:14.982Z,15.00
2023-05-19T04:58:14.946Z,15.00
2023-05-19T04:59:15.004Z,16.60
2023-05-19T05:00:14.991Z,14.70
2023-05-19T05:01:14.956Z,16.00
2023-05-19T05:02:14.996Z,14.50
2023-05-19T05:03:15.060Z,16.50
2023-05-19T05:04:14.937Z,15.50
2023-05-19T05:05:14.926Z,14.60
2023-05-19T05:06:14.857Z,16.60
2023-05-19T05:07:14.899Z,15.30
2023-05-19T05:08:14.872Z,15.60
2023-05-19T05:09:14.862Z,15.20
2023-05-19T05:10:14.835Z,14.70
2023-05-19T05:11:14.850Z,17.30
2023-05-19T05:12:14.798Z,14.30
2023-05-19T05:13:14.809Z,13.60
2023-05-19T05:14:14.780Z,14.30
2023-05-19T05:15:14.825Z,14.00
2023-05-19T05:16:14.824Z,14.80
2023-05-19T05:17:14.792Z,13.40
2023-05-19T05:18:14.730Z,11.70
2023-05-19T05:19:14.834Z,11.90
2023-05-19T05:20:14.723Z,12.10
2023-05-19T05:21:14.709Z,14.60
2023-05-19T05:22:14.720Z,12.40
2023-05-19T05:23:14.744Z,11.80
2023-05-19T05:24:14.706Z,13.80
2023-05-19T05:25:14.660Z,11.30
2023-05-19T05:26:14.675Z,13.70
2023-05-19T05:27:14.644Z,14.20
2023-05-19T05:28:14.665Z,12.70
2023-05-19T05:29:14.636Z,15.50
2023-05-19T05:30:14.637Z,12.30
2023-05-19T05:31:14.605Z,11.80
2023-05-19T05:32:14.650Z,12.20
2023-05-19T05:33:14.738Z,13.50
2023-05-19T05:34:14.591Z,12.50
2023-05-19T05:35:14.577Z,12.80
2023-05-19T05:36:14.581Z,12.30
2023-05-19T05:37:15.304Z,12.30
2023-05-19T05:38:14.543Z,11.40
2023-05-19T05:39:14.523Z,15.30
2023-05-19T05:40:14.548Z,12.70
2023-05-19T05:41:14.523Z,16.40
2023-05-19T05:42:14.509Z,11.30
2023-05-19T05:43:14.475Z,13.20
2023-05-19T05:44:14.519Z,13.10
2023-05-19T05:45:14.451Z,12.10
2023-05-19T05:46:14.498Z,14.90
2023-05-19T05:47:14.455Z,12.00
2023-05-19T05:48:14.521Z,11.60
2023-05-19T05:49:14.415Z,13.50
2023-05-19T05:50:14.415Z,12.40
2023-05-19T05:51:14.398Z,11.90
2023-05-19T05:52:14.400Z,12.30
2023-05-19T05:53:14.392Z,13.60
2023-05-19T05:54:14.382Z,12.00
2023-05-19T05:55:14.347Z,11.80
2023-05-19T05:56:14.366Z,11.10
2023-05-19T05:57:14.328Z,11.40
2023-05-19T05:58:14.350Z,13.30
2023-05-19T05:59:14.328Z,13.30
2023-05-19T06:00:14.316Z,13.00
2023-05-19T06:01:14.304Z,13.00
2023-05-19T06:02:14.394Z,11.20
2023-05-19T06:03:14.385Z,13.40
2023-05-19T06:04:14.285Z,15.00
2023-05-19T06:05:14.343Z,12.30
2023-05-19T06:06:14.268Z,11.90
2023-05-19T06:07:14.260Z,12.60
2023-05-19T06:08:14.258Z,13.60
2023-05-19T06:09:14.199Z,11.90
2023-05-19T06:10:14.208Z,13.80
2023-05-19T06:11:14.227Z,13.30
2023-05-19T06:12:14.202Z,13.40
2023-05-19T06:13:14.167Z,12.10
2023-05-19T06:14:14.195Z,12.50
2023-05-19T06:15:14.152Z,13.20
2023-05-19T06:16:14.186Z,12.30
2023-05-19T06:17:14.143Z,12.70
2023-05-19T06:18:14.175Z,12.50
2023-05-19T06:19:14.140Z,12.50
2023-05-19T06:20:14.115Z,12.60
2023-05-19T06:21:14.070Z,14.40
2023-05-19T06:22:14.079Z,12.30
2023-05-19T06:23:14.081Z,13.90
2023-05-19T06:24:14.072Z,13.10
2023-05-19T06:25:14.044Z,11.50
2023-05-19T06:26:14.065Z,13.40
2023-05-19T06:27:14.016Z,13.70
2023-05-19T06:28:14.028Z,11.10
2023-05-19T06:29:14.012Z,11.70
2023-05-19T06:30:14.041Z,12.40
2023-05-19T06:31:14.022Z,10.70
2023-05-19T06:32:13.985Z,12.00
2023-05-19T06:33:13.965Z,13.80
2023-05-19T06:34:13.960Z,11.00
2023-05-19T06:35:13.939Z,11.10
2023-05-19T06:36:13.946Z,11.60
2023-05-19T06:37:13.904Z,11.80
2023-05-19T06:38:13.930Z,11.70
2023-05-19T06:39:13.897Z,11.90
2023-05-19T06:40:13.943Z,11.80
2023-05-19T06:41:13.892Z,13.80
2023-05-19T06:42:13.880Z,11.80
2023-05-19T06:43:13.842Z,12.90
2023-05-19T06:44:13.871Z,11.80
2023-05-19T06:45:13.830Z,12.30
2023-05-19T06:46:13.868Z,11.60
2023-05-19T06:47:13.931Z,10.90
2023-05-19T06:48:13.862Z,14.00
2023-05-19T06:49:13.781Z,12.30
2023-05-19T06:50:13.820Z,12.60
2023-05-19T06:51:13.775Z,11.80
2023-05-19T06:52:13.774Z,10.00
2023-05-19T06:53:13.767Z,14.40
2023-05-19T06:54:13.755Z,12.50
2023-05-19T06:55:13.746Z,11.30
2023-05-19T06:56:13.742Z,11.70
2023-05-19T06:57:13.692Z,11.10
2023-05-19T06:58:13.718Z,10.60
2023-05-19T06:59:13.691Z,11.50
2023-05-19T07:00:16.097Z,12.60
2023-05-19T07:01:13.700Z,11.50
2023-05-19T07:02:13.738Z,10.30
2023-05-19T07:03:13.671Z,12.60
2023-05-19T07:04:13.751Z,10.80
2023-05-19T07:05:13.786Z,9.40
2023-05-19T07:06:13.618Z,11.40
2023-05-19T07:07:13.595Z,10.10
2023-05-19T07:08:13.598Z,11.90
2023-05-19T07:09:13.586Z,11.80
2023-05-19T07:10:13.581Z,9.30
2023-05-19T07:11:13.564Z,9.90
2023-05-19T07:12:13.555Z,10.90
2023-05-19T07:13:13.525Z,10.70
2023-05-19T07:14:13.565Z,9.10
2023-05-19T07:15:13.509Z,11.90
2023-05-19T07:16:13.578Z,9.70
2023-05-19T07:17:13.577Z,12.10
2023-05-19T07:18:13.560Z,11.30
2023-05-19T07:19:13.535Z,10.50
2023-05-19T07:20:13.478Z,10.40
2023-05-19T07:21:13.478Z,13.60
2023-05-19T07:22:13.450Z,9.90
2023-05-19T07:23:13.910Z,11.70
2023-05-19T07:24:13.450Z,13.00
2023-05-19T07:25:13.413Z,10.20
2023-05-19T07:26:13.403Z,10.60
2023-05-19T07:27:13.375Z,11.80
2023-05-19T07:28:13.381Z,9.20
2023-05-19T07:29:13.370Z,8.80
2023-05-19T07:30:13.366Z,11.70
2023-05-19T07:31:13.336Z,10.70
2023-05-19T07:32:13.478Z,10.30
2023-05-19T07:33:13.396Z,10.90
2023-05-19T07:34:13.321Z,9.50
2023-05-19T07:35:13.537Z,9.90
2023-05-19T07:36:13.315Z,11.40
2023-05-19T07:37:13.278Z,10.20
2023-05-19T07:38:13.293Z,11.00
2023-05-19T07:39:13.306Z,10.80
2023-05-19T07:40:13.264Z,10.70
2023-05-19T07:41:13.235Z,11.20
2023-05-19T07:42:13.257Z,10.00
2023-05-19T07:43:13.200Z,10.90
2023-05-19T07:44:13.233Z,9.70
2023-05-19T07:45:13.172Z,11.60
2023-05-19T07:46:13.292Z,10.60
2023-05-19T07:47:13.179Z,10.00
2023-05-19T07:48:13.211Z,9.00
2023-05-19T07:49:13.159Z,10.60
2023-05-19T07:50:13.159Z,12.80
2023-05-19T07:51:13.119Z,9.70
2023-05-19T07:52:13.153Z,12.00
2023-05-19T07:53:13.113Z,9.80
2023-05-19T07:54:13.109Z,7.70
2023-05-19T07:55:13.080Z,10.40
2023-05-19T07:56:13.084Z,10.70
2023-05-19T07:57:13.050Z,12.30
2023-05-19T07:58:13.054Z,10.00
2023-05-19T07:59:13.072Z,9.60
2023-05-19T08:00:13.072Z,10.40
2023-05-19T08:01:13.027Z,10.40
2023-05-19T08:02:13.154Z,12.20
2023-05-19T08:03:13.218Z,11.80
2023-05-19T08:04:13.346Z,9.70
2023-05-19T08:05:12.992Z,10.40
2023-05-19T08:06:12.976Z,10.60
2023-05-19T08:07:12.968Z,13.10
2023-05-19T08:08:12.953Z,10.10
2023-05-19T08:09:12.934Z,10.00
2023-05-19T08:10:12.939Z,12.20
2023-05-19T08:11:12.937Z,10.70
2023-05-19T08:12:12.923Z,10.50
2023-05-19T08:13:12.886Z,12.90
2023-05-19T08:14:12.906Z,10.20
2023-05-19T08:15:12.875Z,10.90
2023-05-19T08:16:12.933Z,12.00
2023-05-19T08:17:12.879Z,10.50
2023-05-19T08:18:12.933Z,10.00
2023-05-19T08:19:12.892Z,11.80
2023-05-19T08:20:12.852Z,9.10
2023-05-19T08:21:12.805Z,10.60
2023-05-19T08:22:12.827Z,12.00
2023-05-19T08:23:12.829Z,12.40
2023-05-19T08:24:12.794Z,9.90
2023-05-19T08:25:12.759Z,11.30
2023-05-19T08:26:12.774Z,9.20
2023-05-19T08:27:12.746Z,11.50
2023-05-19T08:28:12.759Z,10.90
2023-05-19T08:29:12.743Z,10.60
2023-05-19T08:30:12.745Z,12.30
2023-05-19T08:31:12.799Z,9.90
2023-05-19T08:32:13.462Z,10.50
2023-05-19T08:33:12.737Z,9.60
2023-05-19T08:34:12.696Z,8.70
2023-05-19T08:35:12.665Z,10.60
2023-05-19T08:36:12.690Z,11.00
2023-05-19T08:37:12.644Z,10.40
2023-05-19T08:38:12.650Z,14.00
2023-05-19T08:39:12.618Z,9.50
2023-05-19T08:40:12.643Z,10.40
2023-05-19T08:41:12.626Z,10.00
2023-05-19T08:42:12.604Z,9.50
2023-05-19T08:43:12.583Z,9.10
2023-05-19T08:44:12.604Z,11.90
2023-05-19T08:45:12.560Z,11.30
2023-05-19T08:46:12.621Z,9.40
2023-05-19T08:47:12.837Z,9.60
2023-05-19T08:48:12.583Z,11.60
2023-05-19T08:49:12.509Z,9.80
2023-05-19T08:50:12.527Z,11.60
2023-05-19T08:51:12.519Z,11.30
2023-05-19T08:52:12.502Z,11.80
2023-05-19T08:53:24.696Z,11.10
2023-05-19T08:54:12.564Z,10.90
2023-05-19T08:55:12.459Z,9.60
2023-05-19T08:56:12.461Z,10.20
2023-05-19T08:57:12.432Z,11.00
2023-05-19T08:58:12.451Z,9.60
2023-05-19T08:59:12.435Z,6.90
2023-05-19T09:00:12.410Z,9.90
2023-05-19T09:01:12.433Z,9.90
2023-05-19T09:02:12.405Z,10.40
2023-05-19T09:04:12.424Z,8.70
2023-05-19T09:05:12.386Z,9.40
2023-05-19T09:06:12.364Z,7.60
2023-05-19T09:07:12.328Z,10.00
2023-05-19T09:08:12.332Z,10.20
2023-05-19T09:09:12.312Z,9.10
2023-05-19T09:10:12.332Z,8.20
2023-05-19T09:11:12.343Z,10.20
2023-05-19T09:12:12.303Z,8.20
2023-05-19T09:13:12.285Z,10.50
2023-05-19T09:14:12.277Z,11.40
2023-05-19T09:15:12.238Z,11.60
2023-05-19T09:16:12.358Z,8.70
2023-05-19T09:17:12.288Z,9.50
2023-05-19T09:18:12.309Z,10.00
2023-05-19T09:19:12.248Z,9.70
2023-05-19T09:20:12.224Z,10.10
2023-05-19T09:21:12.172Z,8.60
2023-05-19T09:22:12.193Z,11.20
2023-05-19T09:23:12.185Z,8.20
2023-05-19T09:24:12.170Z,9.10
2023-05-19T09:25:12.138Z,9.30
2023-05-19T09:26:12.157Z,9.40
2023-05-19T09:27:12.118Z,10.70
2023-05-19T09:28:12.134Z,8.60
2023-05-19T09:29:12.135Z,9.90
2023-05-19T09:30:12.135Z,10.40
2023-05-19T09:31:12.085Z,10.20
2023-05-19T09:32:12.128Z,8.90
2023-05-19T09:33:12.124Z,8.30
2023-05-19T09:34:12.068Z,9.60
2023-05-19T09:35:12.070Z,9.10
2023-05-19T09:36:12.053Z,9.90
2023-05-19T09:37:12.042Z,8.80
2023-05-19T09:38:12.025Z,9.00
2023-05-19T09:39:12.020Z,7.40
2023-05-19T09:40:13.088Z,8.50
2023-05-19T09:41:12.013Z,9.50
2023-05-19T09:42:11.967Z,8.00
2023-05-19T09:43:11.982Z,9.30
2023-05-19T09:44:11.946Z,10.20
2023-05-19T09:45:11.970Z,9.50
2023-05-19T09:46:13.723Z,12.30
2023-05-19T09:47:11.951Z,8.50
2023-05-19T09:48:11.916Z,9.90
2023-05-19T09:49:11.916Z,9.10
2023-05-19T09:50:11.885Z,9.30
2023-05-19T09:51:11.922Z,9.00
2023-05-19T09:52:12.727Z,7.40
2023-05-19T09:53:11.899Z,10.90
2023-05-19T09:54:11.849Z,8.20
2023-05-19T09:55:11.904Z,9.70
2023-05-19T09:56:11.820Z,9.20
2023-05-19T09:57:11.842Z,8.90
2023-05-19T09:58:12.708Z,9.60
2023-05-19T09:59:11.838Z,8.90
2023-05-19T10:00:11.797Z,7.40
2023-05-19T10:01:11.837Z,7.60
2023-05-19T10:02:11.759Z,10.10
2023-05-19T10:03:11.825Z,8.80
2023-05-19T10:04:11.742Z,8.20
2023-05-19T10:05:11.824Z,7.50
2023-05-19T10:06:11.732Z,7.70
2023-05-19T10:07:11.744Z,8.90
2023-05-19T10:08:11.710Z,8.60
2023-05-19T10:09:11.716Z,8.50
2023-05-19T10:10:11.686Z,8.70
2023-05-19T10:11:11.714Z,10.40
2023-05-19T10:12:11.665Z,8.50
2023-05-19T10:13:11.674Z,8.90
2023-05-19T10:14:11.718Z,6.10
2023-05-19T10:15:11.838Z,10.40
2023-05-19T10:16:11.680Z,7.00
2023-05-19T10:17:11.657Z,8.80
2023-05-19T10:18:11.629Z,8.60
2023-05-19T10:19:11.667Z,8.00
2023-05-19T10:20:11.586Z,9.60
2023-05-19T10:21:11.619Z,9.50
2023-05-19T10:22:11.584Z,8.60
2023-05-19T10:23:11.589Z,7.60
2023-05-19T10:24:13.316Z,7.40
2023-05-19T10:25:11.577Z,7.30
2023-05-19T10:26:11.553Z,8.90
2023-05-19T10:27:11.535Z,7.80
2023-05-19T10:28:11.516Z,7.40
2023-05-19T10:29:11.714Z,8.80
2023-05-19T10:30:12.771Z,7.60
2023-05-19T10:31:11.500Z,7.90
2023-05-19T10:32:11.686Z,9.20
2023-05-19T10:33:11.523Z,9.60
2023-05-19T10:34:11.442Z,9.20
2023-05-19T10:35:11.488Z,6.50
2023-05-19T10:36:11.438Z,9.20
2023-05-19T10:37:11.447Z,7.10
2023-05-19T10:38:11.412Z,7.20
2023-05-19T10:39:11.414Z,9.60
2023-05-19T10:40:11.390Z,6.40
2023-05-19T10:41:11.427Z,8.80
2023-05-19T10:42:11.384Z,12.90
2023-05-19T10:43:11.413Z,7.70
2023-05-19T10:44:11.341Z,7.20
2023-05-19T10:45:11.399Z,7.20
2023-05-19T10:46:11.336Z,9.10
2023-05-19T10:47:12.794Z,8.50
2023-05-19T10:48:11.365Z,9.60
2023-05-19T10:49:11.346Z,8.20
2023-05-19T10:50:11.275Z,6.80
2023-05-19T10:51:11.323Z,7.70
2023-05-19T10:52:11.272Z,7.90
2023-05-19T10:53:11.299Z,7.80
2023-05-19T10:54:12.271Z,8.40
2023-05-19T10:55:11.260Z,9.50
2023-05-19T10:56:11.215Z,7.40
2023-05-19T10:57:11.236Z,7.70
2023-05-19T10:58:11.197Z,7.10
2023-05-19T10:59:11.227Z,6.90
2023-05-19T11:00:11.181Z,7.40
2023-05-19T11:01:11.229Z,9.10
2023-05-19T11:02:11.202Z,7.90
2023-05-19T11:03:11.264Z,6.30
2023-05-19T11:04:11.401Z,6.20
2023-05-19T11:05:11.206Z,8.00
2023-05-19T11:06:11.125Z,6.50
2023-05-19T11:07:11.130Z,7.00
2023-05-19T11:08:11.096Z,7.50
2023-05-19T11:09:11.122Z,8.70
2023-05-19T11:10:11.083Z,8.20
2023-05-19T11:11:11.120Z,6.30
2023-05-19T11:12:11.057Z,6.80
2023-05-19T11:13:11.071Z,6.70
2023-05-19T11:14:11.091Z,6.50
2023-05-19T11:15:11.075Z,7.70
2023-05-19T11:16:11.066Z,6.90
2023-05-19T11:17:11.365Z,6.60
2023-05-19T11:18:11.016Z,7.30
2023-05-19T11:19:11.045Z,6.60
2023-05-19T11:20:10.987Z,8.40
2023-05-19T11:21:11.978Z,9.20
2023-05-19T11:22:10.961Z,9.20
2023-05-19T11:23:11.080Z,9.20
2023-05-19T11:24:10.972Z,7.30
2023-05-19T11:25:10.946Z,6.20
2023-05-19T11:26:10.934Z,7.20
2023-05-19T11:27:10.945Z,8.00
2023-05-19T11:28:10.889Z,6.10
2023-05-19T11:29:10.931Z,6.70
2023-05-19T11:30:10.884Z,6.10
2023-05-19T11:31:11.122Z,6.90
2023-05-19T11:32:11.075Z,7.00
2023-05-19T11:33:11.187Z,7.20
2023-05-19T11:34:10.827Z,6.70
2023-05-19T11:35:10.887Z,8.90
2023-05-19T11:36:10.812Z,5.00
2023-05-19T11:37:10.831Z,7.60
2023-05-19T11:38:10.791Z,5.10
2023-05-19T11:39:10.803Z,5.50
2023-05-19T11:40:10.772Z,8.20
2023-05-19T11:41:10.810Z,6.50
2023-05-19T11:42:10.758Z,6.20
2023-05-19T11:43:10.784Z,8.00
2023-05-19T11:44:10.734Z,7.60
2023-05-19T11:45:10.746Z,5.20
2023-05-19T11:46:10.770Z,6.50
2023-05-19T11:47:10.736Z,6.60
2023-05-19T11:48:10.712Z,7.90
2023-05-19T11:49:10.722Z,5.70
2023-05-19T11:50:10.665Z,4.90
2023-05-19T11:51:10.680Z,6.80
2023-05-19T11:52:10.657Z,7.20
2023-05-19T11:53:10.712Z,6.30
2023-05-19T11:54:10.638Z,6.10
2023-05-19T11:55:10.637Z,6.10
2023-05-19T11:56:10.621Z,4.00
2023-05-19T11:57:10.631Z,8.40
2023-05-19T11:58:10.593Z,7.40
2023-05-19T11:59:10.658Z,5.80
2023-05-19T12:00:10.575Z,6.10
2023-05-19T12:01:10.592Z,7.80
2023-05-19T12:02:10.592Z,6.40
2023-05-19T12:03:10.859Z,6.80
2023-05-19T12:04:10.586Z,6.90
2023-05-19T12:05:10.627Z,5.50
2023-05-19T12:06:10.583Z,6.80
2023-05-19T12:07:10.527Z,5.50
2023-05-19T12:08:10.529Z,6.90
2023-05-19T12:09:10.510Z,6.70
2023-05-19T12:10:10.577Z,5.60
2023-05-19T12:11:10.487Z,6.30
2023-05-19T12:12:10.450Z,8.00
2023-05-19T12:13:10.814Z,7.50
2023-05-19T12:14:10.460Z,5.40
2023-05-19T12:15:10.438Z,8.20
2023-05-19T12:16:10.448Z,8.20
2023-05-19T12:17:10.440Z,6.40
2023-05-19T12:18:10.428Z,5.70
2023-05-19T12:19:10.464Z,7.50
2023-05-19T12:20:10.460Z,8.20
2023-05-19T12:21:10.373Z,6.00
2023-05-19T12:22:10.343Z,7.00
2023-05-19T12:23:10.392Z,6.90
2023-05-19T12:24:10.322Z,6.30
2023-05-19T12:25:10.336Z,5.30
2023-05-19T12:26:10.334Z,7.40
2023-05-19T12:27:10.314Z,5.70
2023-05-19T12:28:10.284Z,6.00
2023-05-19T12:29:10.323Z,5.40
2023-05-19T12:30:10.280Z,5.90
2023-05-19T12:31:10.310Z,7.00
2023-05-19T12:32:10.363Z,5.10
2023-05-19T12:33:10.278Z,7.60
2023-05-19T12:34:10.214Z,8.80
2023-05-19T12:35:10.254Z,6.40
2023-05-19T12:36:10.223Z,5.30
2023-05-19T12:37:10.230Z,7.10
2023-05-19T12:38:10.178Z,7.50
2023-05-19T12:39:10.201Z,5.10
2023-05-19T12:40:10.267Z,5.70
2023-05-19T12:41:10.216Z,7.20
2023-05-19T12:42:10.143Z,5.70
2023-05-19T12:43:10.165Z,6.40
2023-05-19T12:44:10.138Z,7.20
2023-05-19T12:45:10.128Z,6.10
2023-05-19T12:46:10.136Z,7.00
2023-05-19T12:47:10.142Z,6.00
2023-05-19T12:48:10.115Z,6.00
2023-05-19T12:49:10.101Z,7.50
2023-05-19T12:50:10.356Z,6.90
2023-05-19T12:51:10.069Z,6.80
2023-05-19T12:52:12.741Z,7.30
2023-05-19T12:53:10.077Z,7.10
2023-05-19T12:54:10.042Z,6.70
2023-05-19T12:55:10.272Z,8.90
2023-05-19T12:56:10.002Z,6.90
2023-05-19T12:57:09.999Z,6.70
2023-05-19T12:58:09.993Z,5.30
2023-05-19T12:59:09.999Z,7.70
2023-05-19T13:00:10.064Z,5.80
2023-05-19T13:01:10.002Z,6.20